sensor_id;sensor_type;location;lat;lon;timestamp;P1;durP1;ratioP1;P2;durP2;ratioP2
7887;SDS011;3989;48.810;9.208;2023-05-07T00:00:34;4.17;;;3.87;;
7887;SDS011;3989;48.810;9.208;2023-05-07T00:03:02;4.93;;;4.60;;
7887;SDS011;3989;48.810;9.208;2023-05-07T00:05:29;4.43;;;4.00;;
7887;SDS011;3989;48.810;9.208;2023-05-07T00:07:55;4.30;;;4.00;;
7887;SDS011;3989;48.810;9.208;2023-05-07T00:10:22;4.73;;;4.37;;
7887;SDS011;3989;48.810;9.208;2023-05-07T00:12:49;3.90;;;3.60;;
7887;SDS011;3989;48.810;9.208;2023-05-07T00:15:15;4.67;;;4.27;;
7887;SDS011;3989;48.810;9.208;2023-05-07T00:17:41;5.30;;;4.00;;
7887;SDS011;3989;48.810;9.208;2023-05-07T00:20:10;4.90;;;4.60;;
7887;SDS011;3989;48.810;9.208;2023-05-07T00:22:37;4.17;;;3.83;;
7887;SDS011;3989;48.810;9.208;2023-05-07T00:25:04;5.10;;;4.30;;
7887;SDS011;3989;48.810;9.208;2023-05-07T00:27:31;4.73;;;4.33;;
7887;SDS011;3989;48.810;9.208;2023-05-07T00:29:57;4.90;;;4.50;;
7887;SDS011;3989;48.810;9.208;2023-05-07T00:32:24;4.43;;;4.13;;
7887;SDS011;3989;48.810;9.208;2023-05-07T00:34:50;4.47;;;4.23;;
7887;SDS011;3989;48.810;9.208;2023-05-07T00:37:18;4.33;;;4.03;;
7887;SDS011;3989;48.810;9.208;2023-05-07T00:39:45;5.17;;;4.77;;
7887;SDS011;3989;48.810;9.208;2023-05-07T00:42:12;4.60;;;4.30;;
7887;SDS011;3989;48.810;9.208;2023-05-07T00:44:40;4.53;;;4.23;;
7887;SDS011;3989;48.810;9.208;2023-05-07T00:47:06;4.60;;;4.20;;
7887;SDS011;3989;48.810;9.208;2023-05-07T00:49:35;4.80;;;4.40;;
7887;SDS011;3989;48.810;9.208;2023-05-07T00:52:05;4.53;;;4.23;;
7887;SDS011;3989;48.810;9.208;2023-05-07T00:54:34;4.80;;;4.50;;
7887;SDS011;3989;48.810;9.208;2023-05-07T00:57:01;4.33;;;4.03;;
7887;SDS011;3989;48.810;9.208;2023-05-07T00:59:29;5.30;;;4.50;;
7887;SDS011;3989;48.810;9.208;2023-05-07T01:01:56;4.33;;;4.03;;
7887;SDS011;3989;48.810;9.208;2023-05-07T01:04:23;4.63;;;4.23;;
7887;SDS011;3989;48.810;9.208;2023-05-07T01:06:50;4.60;;;4.30;;
7887;SDS011;3989;48.810;9.208;2023-05-07T01:09:17;4.37;;;3.97;;
7887;SDS011;3989;48.810;9.208;2023-05-07T01:11:47;4.37;;;4.03;;
7887;SDS011;3989;48.810;9.208;2023-05-07T01:14:15;4.73;;;4.33;;
7887;SDS011;3989;48.810;9.208;2023-05-07T01:16:43;6.30;;;4.03;;
7887;SDS011;3989;48.810;9.208;2023-05-07T01:19:09;4.17;;;3.77;;
7887;SDS011;3989;48.810;9.208;2023-05-07T01:21:38;4.47;;;4.10;;
7887;SDS011;3989;48.810;9.208;2023-05-07T01:24:12;4.40;;;4.00;;
7887;SDS011;3989;48.810;9.208;2023-05-07T01:26:39;4.63;;;4.10;;
7887;SDS011;3989;48.810;9.208;2023-05-07T01:29:05;4.47;;;4.07;;
7887;SDS011;3989;48.810;9.208;2023-05-07T01:31:32;4.93;;;4.53;;
7887;SDS011;3989;48.810;9.208;2023-05-07T01:34:00;7.67;;;4.47;;
7887;SDS011;3989;48.810;9.208;2023-05-07T01:36:29;3.97;;;3.67;;
7887;SDS011;3989;48.810;9.208;2023-05-07T01:38:57;4.47;;;4.07;;
7887;SDS011;3989;48.810;9.208;2023-05-07T01:41:26;4.40;;;4.10;;
7887;SDS011;3989;48.810;9.208;2023-05-07T01:43:54;4.10;;;3.80;;
7887;SDS011;3989;48.810;9.208;2023-05-07T01:46:21;3.87;;;3.50;;
7887;SDS011;3989;48.810;9.208;2023-05-07T01:48:48;4.37;;;3.73;;
7887;SDS011;3989;48.810;9.208;2023-05-07T01:51:16;4.50;;;4.10;;
7887;SDS011;3989;48.810;9.208;2023-05-07T01:53:44;5.80;;;4.20;;
7887;SDS011;3989;48.810;9.208;2023-05-07T01:56:15;3.87;;;3.60;;
7887;SDS011;3989;48.810;9.208;2023-05-07T01:58:43;4.67;;;4.27;;
7887;SDS011;3989;48.810;9.208;2023-05-07T02:01:10;6.87;;;4.23;;
7887;SDS011;3989;48.810;9.208;2023-05-07T02:03:37;4.70;;;4.40;;
7887;SDS011;3989;48.810;9.208;2023-05-07T02:06:03;4.83;;;4.43;;
7887;SDS011;3989;48.810;9.208;2023-05-07T02:08:30;4.93;;;4.47;;
7887;SDS011;3989;48.810;9.208;2023-05-07T02:10:56;5.03;;;4.63;;
7887;SDS011;3989;48.810;9.208;2023-05-07T02:13:23;4.30;;;4.00;;
7887;SDS011;3989;48.810;9.208;2023-05-07T02:15:52;4.50;;;4.10;;
7887;SDS011;3989;48.810;9.208;2023-05-07T02:18:18;4.37;;;3.97;;
7887;SDS011;3989;48.810;9.208;2023-05-07T02:20:45;4.27;;;3.87;;
7887;SDS011;3989;48.810;9.208;2023-05-07T02:23:11;4.23;;;3.93;;
7887;SDS011;3989;48.810;9.208;2023-05-07T02:25:38;4.10;;;3.83;;
7887;SDS011;3989;48.810;9.208;2023-05-07T02:28:04;4.43;;;3.73;;
7887;SDS011;3989;48.810;9.208;2023-05-07T02:30:31;4.10;;;3.80;;
7887;SDS011;3989;48.810;9.208;2023-05-07T02:32:59;3.87;;;3.43;;
7887;SDS011;3989;48.810;9.208;2023-05-07T02:35:25;4.20;;;3.90;;
7887;SDS011;3989;48.810;9.208;2023-05-07T02:37:52;4.20;;;3.90;;
7887;SDS011;3989;48.810;9.208;2023-05-07T02:40:18;3.77;;;3.57;;
7887;SDS011;3989;48.810;9.208;2023-05-07T02:42:45;4.73;;;4.40;;
7887;SDS011;3989;48.810;9.208;2023-05-07T02:45:12;6.13;;;4.10;;
7887;SDS011;3989;48.810;9.208;2023-05-07T02:47:39;4.30;;;4.00;;
7887;SDS011;3989;48.810;9.208;2023-05-07T02:50:07;3.90;;;3.60;;
7887;SDS011;3989;48.810;9.208;2023-05-07T02:52:34;4.97;;;4.07;;
7887;SDS011;3989;48.810;9.208;2023-05-07T02:55:00;6.37;;;4.40;;
7887;SDS011;3989;48.810;9.208;2023-05-07T02:57:27;4.10;;;3.80;;
7887;SDS011;3989;48.810;9.208;2023-05-07T02:59:54;3.80;;;3.60;;
7887;SDS011;3989;48.810;9.208;2023-05-07T03:02:20;4.97;;;4.00;;
7887;SDS011;3989;48.810;9.208;2023-05-07T03:04:47;3.90;;;3.60;;
7887;SDS011;3989;48.810;9.208;2023-05-07T03:07:15;4.33;;;3.80;;
7887;SDS011;3989;48.810;9.208;2023-05-07T03:09:41;4.10;;;3.80;;
7887;SDS011;3989;48.810;9.208;2023-05-07T03:12:08;4.03;;;3.73;;
7887;SDS011;3989;48.810;9.208;2023-05-07T03:14:34;4.67;;;4.17;;
7887;SDS011;3989;48.810;9.208;2023-05-07T03:17:01;4.03;;;3.73;;
7887;SDS011;3989;48.810;9.208;2023-05-07T03:19:27;5.40;;;4.63;;
7887;SDS011;3989;48.810;9.208;2023-05-07T03:21:55;5.87;;;5.37;;
7887;SDS011;3989;48.810;9.208;2023-05-07T03:24:23;5.23;;;4.83;;
7887;SDS011;3989;48.810;9.208;2023-05-07T03:26:50;5.03;;;4.63;;
7887;SDS011;3989;48.810;9.208;2023-05-07T03:29:16;4.83;;;4.53;;
7887;SDS011;3989;48.810;9.208;2023-05-07T03:31:43;4.37;;;4.00;;
7887;SDS011;3989;48.810;9.208;2023-05-07T03:34:10;5.87;;;4.13;;
7887;SDS011;3989;48.810;9.208;2023-05-07T03:36:36;6.00;;;5.50;;
7887;SDS011;3989;48.810;9.208;2023-05-07T03:39:03;5.57;;;5.07;;
7887;SDS011;3989;48.810;9.208;2023-05-07T03:41:32;6.13;;;4.90;;
7887;SDS011;3989;48.810;9.208;2023-05-07T03:43:58;5.80;;;5.30;;
7887;SDS011;3989;48.810;9.208;2023-05-07T03:46:25;6.23;;;5.53;;
7887;SDS011;3989;48.810;9.208;2023-05-07T03:48:53;5.43;;;4.93;;
7887;SDS011;3989;48.810;9.208;2023-05-07T03:51:19;4.90;;;4.50;;
7887;SDS011;3989;48.810;9.208;2023-05-07T03:53:46;5.70;;;5.30;;
7887;SDS011;3989;48.810;9.208;2023-05-07T03:56:12;5.43;;;5.03;;
7887;SDS011;3989;48.810;9.208;2023-05-07T03:58:40;5.50;;;5.00;;
7887;SDS011;3989;48.810;9.208;2023-05-07T04:01:07;5.03;;;4.60;;
7887;SDS011;3989;48.810;9.208;2023-05-07T04:03:33;5.50;;;4.97;;
7887;SDS011;3989;48.810;9.208;2023-05-07T04:06:00;6.10;;;5.50;;
7887;SDS011;3989;48.810;9.208;2023-05-07T04:08:26;5.43;;;4.97;;
7887;SDS011;3989;48.810;9.208;2023-05-07T04:10:56;5.47;;;5.00;;
7887;SDS011;3989;48.810;9.208;2023-05-07T04:13:22;5.77;;;5.23;;
7887;SDS011;3989;48.810;9.208;2023-05-07T04:15:50;5.27;;;4.83;;
7887;SDS011;3989;48.810;9.208;2023-05-07T04:18:17;5.07;;;4.70;;
7887;SDS011;3989;48.810;9.208;2023-05-07T04:20:44;5.67;;;5.27;;
7887;SDS011;3989;48.810;9.208;2023-05-07T04:23:10;5.80;;;5.30;;
7887;SDS011;3989;48.810;9.208;2023-05-07T04:25:37;4.87;;;4.57;;
7887;SDS011;3989;48.810;9.208;2023-05-07T04:28:03;5.23;;;4.83;;
7887;SDS011;3989;48.810;9.208;2023-05-07T04:30:31;5.17;;;4.70;;
7887;SDS011;3989;48.810;9.208;2023-05-07T04:32:58;5.27;;;4.80;;
7887;SDS011;3989;48.810;9.208;2023-05-07T04:35:25;7.23;;;4.87;;
7887;SDS011;3989;48.810;9.208;2023-05-07T04:37:52;5.20;;;4.70;;
7887;SDS011;3989;48.810;9.208;2023-05-07T04:40:18;5.00;;;4.60;;
7887;SDS011;3989;48.810;9.208;2023-05-07T04:42:45;5.37;;;4.97;;
7887;SDS011;3989;48.810;9.208;2023-05-07T04:45:11;5.40;;;4.90;;
7887;SDS011;3989;48.810;9.208;2023-05-07T04:47:38;4.30;;;4.00;;
7887;SDS011;3989;48.810;9.208;2023-05-07T04:50:06;5.20;;;4.70;;
7887;SDS011;3989;48.810;9.208;2023-05-07T04:52:33;5.17;;;4.73;;
7887;SDS011;3989;48.810;9.208;2023-05-07T04:55:00;4.80;;;4.33;;
7887;SDS011;3989;48.810;9.208;2023-05-07T04:57:27;5.07;;;4.63;;
7887;SDS011;3989;48.810;9.208;2023-05-07T04:59:53;4.40;;;4.10;;
7887;SDS011;3989;48.810;9.208;2023-05-07T05:02:20;5.50;;;5.03;;
7887;SDS011;3989;48.810;9.208;2023-05-07T05:04:47;4.73;;;4.43;;
7887;SDS011;3989;48.810;9.208;2023-05-07T05:07:14;4.80;;;4.37;;
7887;SDS011;3989;48.810;9.208;2023-05-07T05:09:41;4.93;;;4.53;;
7887;SDS011;3989;48.810;9.208;2023-05-07T05:12:07;4.53;;;4.23;;
7887;SDS011;3989;48.810;9.208;2023-05-07T05:14:34;4.60;;;4.27;;
7887;SDS011;3989;48.810;9.208;2023-05-07T05:17:01;5.47;;;5.07;;
7887;SDS011;3989;48.810;9.208;2023-05-07T05:19:27;4.70;;;4.40;;
7887;SDS011;3989;48.810;9.208;2023-05-07T05:21:53;4.63;;;4.23;;
7887;SDS011;3989;48.810;9.208;2023-05-07T05:24:21;4.30;;;4.07;;
7887;SDS011;3989;48.810;9.208;2023-05-07T05:26:48;4.43;;;4.07;;
7887;SDS011;3989;48.810;9.208;2023-05-07T05:29:14;4.57;;;4.33;;
7887;SDS011;3989;48.810;9.208;2023-05-07T05:31:41;5.87;;;4.00;;
7887;SDS011;3989;48.810;9.208;2023-05-07T05:34:07;4.27;;;3.97;;
7887;SDS011;3989;48.810;9.208;2023-05-07T05:36:34;4.37;;;4.07;;
7887;SDS011;3989;48.810;9.208;2023-05-07T05:39:00;4.87;;;4.47;;
7887;SDS011;3989;48.810;9.208;2023-05-07T05:41:28;4.80;;;4.40;;
7887;SDS011;3989;48.810;9.208;2023-05-07T05:43:55;4.77;;;3.67;;
7887;SDS011;3989;48.810;9.208;2023-05-07T05:46:22;4.17;;;3.87;;
7887;SDS011;3989;48.810;9.208;2023-05-07T05:48:48;4.27;;;4.07;;
7887;SDS011;3989;48.810;9.208;2023-05-07T05:51:15;4.23;;;3.93;;
7887;SDS011;3989;48.810;9.208;2023-05-07T05:53:41;4.57;;;4.27;;
7887;SDS011;3989;48.810;9.208;2023-05-07T05:56:08;5.00;;;4.53;;
7887;SDS011;3989;48.810;9.208;2023-05-07T05:58:36;4.87;;;4.47;;
7887;SDS011;3989;48.810;9.208;2023-05-07T06:01:02;4.80;;;4.40;;
7887;SDS011;3989;48.810;9.208;2023-05-07T06:03:30;5.20;;;4.70;;
7887;SDS011;3989;48.810;9.208;2023-05-07T06:05:57;5.40;;;4.33;;
7887;SDS011;3989;48.810;9.208;2023-05-07T06:08:25;5.00;;;4.63;;
7887;SDS011;3989;48.810;9.208;2023-05-07T06:10:51;4.17;;;3.87;;
7887;SDS011;3989;48.810;9.208;2023-05-07T06:13:18;6.13;;;4.63;;
7887;SDS011;3989;48.810;9.208;2023-05-07T06:15:46;5.10;;;4.70;;
7887;SDS011;3989;48.810;9.208;2023-05-07T06:18:12;5.23;;;4.83;;
7887;SDS011;3989;48.810;9.208;2023-05-07T06:20:39;5.37;;;4.97;;
7887;SDS011;3989;48.810;9.208;2023-05-07T06:23:05;5.10;;;4.60;;
7887;SDS011;3989;48.810;9.208;2023-05-07T06:25:32;4.90;;;4.50;;
7887;SDS011;3989;48.810;9.208;2023-05-07T06:27:58;5.13;;;4.73;;
7887;SDS011;3989;48.810;9.208;2023-05-07T06:30:25;9.13;;;4.73;;
7887;SDS011;3989;48.810;9.208;2023-05-07T06:32:53;9.00;;;4.40;;
7887;SDS011;3989;48.810;9.208;2023-05-07T06:35:19;4.37;;;4.07;;
7887;SDS011;3989;48.810;9.208;2023-05-07T06:37:46;4.73;;;3.93;;
7887;SDS011;3989;48.810;9.208;2023-05-07T06:40:12;5.10;;;4.80;;
7887;SDS011;3989;48.810;9.208;2023-05-07T06:42:39;5.17;;;4.60;;
7887;SDS011;3989;48.810;9.208;2023-05-07T06:45:06;7.47;;;4.70;;
7887;SDS011;3989;48.810;9.208;2023-05-07T06:47:34;4.70;;;4.40;;
7887;SDS011;3989;48.810;9.208;2023-05-07T06:50:02;4.97;;;4.53;;
7887;SDS011;3989;48.810;9.208;2023-05-07T06:52:29;5.23;;;4.70;;
7887;SDS011;3989;48.810;9.208;2023-05-07T06:54:55;5.00;;;3.80;;
7887;SDS011;3989;48.810;9.208;2023-05-07T06:57:22;4.33;;;3.90;;
7887;SDS011;3989;48.810;9.208;2023-05-07T06:59:48;4.27;;;3.87;;
7887;SDS011;3989;48.810;9.208;2023-05-07T07:02:14;3.97;;;3.67;;
7887;SDS011;3989;48.810;9.208;2023-05-07T07:04:41;3.83;;;3.60;;
7887;SDS011;3989;48.810;9.208;2023-05-07T07:07:09;4.00;;;3.70;;
7887;SDS011;3989;48.810;9.208;2023-05-07T07:09:36;3.77;;;3.20;;
7887;SDS011;3989;48.810;9.208;2023-05-07T07:12:02;4.15;;;3.47;;
7887;SDS011;3989;48.810;9.208;2023-05-07T07:14:29;4.43;;;3.70;;
7887;SDS011;3989;48.810;9.208;2023-05-07T07:16:56;3.75;;;3.45;;
7887;SDS011;3989;48.810;9.208;2023-05-07T07:19:22;3.78;;;3.58;;
7887;SDS011;3989;48.810;9.208;2023-05-07T07:21:49;4.15;;;3.85;;
7887;SDS011;3989;48.810;9.208;2023-05-07T07:24:17;4.13;;;3.83;;
7887;SDS011;3989;48.810;9.208;2023-05-07T07:26:46;5.03;;;4.53;;
7887;SDS011;3989;48.810;9.208;2023-05-07T07:29:12;4.38;;;3.90;;
7887;SDS011;3989;48.810;9.208;2023-05-07T07:31:39;4.25;;;3.60;;
7887;SDS011;3989;48.810;9.208;2023-05-07T07:34:05;3.55;;;3.35;;
7887;SDS011;3989;48.810;9.208;2023-05-07T07:36:32;4.13;;;3.92;;
7887;SDS011;3989;48.810;9.208;2023-05-07T07:38:58;3.58;;;3.38;;
7887;SDS011;3989;48.810;9.208;2023-05-07T07:41:26;4.22;;;3.28;;
7887;SDS011;3989;48.810;9.208;2023-05-07T07:43:53;3.25;;;3.05;;
7887;SDS011;3989;48.810;9.208;2023-05-07T07:46:19;3.60;;;3.30;;
7887;SDS011;3989;48.810;9.208;2023-05-07T07:48:46;4.13;;;3.20;;
7887;SDS011;3989;48.810;9.208;2023-05-07T07:51:12;3.00;;;2.85;;
7887;SDS011;3989;48.810;9.208;2023-05-07T07:53:39;4.32;;;3.20;;
7887;SDS011;3989;48.810;9.208;2023-05-07T07:56:06;5.35;;;3.47;;
7887;SDS011;3989;48.810;9.208;2023-05-07T07:58:34;3.75;;;3.55;;
7887;SDS011;3989;48.810;9.208;2023-05-07T08:01:03;4.97;;;4.45;;
7887;SDS011;3989;48.810;9.208;2023-05-07T08:03:29;4.38;;;3.97;;
7887;SDS011;3989;48.810;9.208;2023-05-07T08:05:57;3.83;;;3.63;;
7887;SDS011;3989;48.810;9.208;2023-05-07T08:08:23;4.18;;;3.88;;
7887;SDS011;3989;48.810;9.208;2023-05-07T08:10:50;3.50;;;3.30;;
7887;SDS011;3989;48.810;9.208;2023-05-07T08:13:17;4.55;;;3.45;;
7887;SDS011;3989;48.810;9.208;2023-05-07T08:15:45;3.50;;;3.20;;
7887;SDS011;3989;48.810;9.208;2023-05-07T08:18:11;2.85;;;2.67;;
7887;SDS011;3989;48.810;9.208;2023-05-07T08:20:38;3.53;;;3.33;;
7887;SDS011;3989;48.810;9.208;2023-05-07T08:23:06;3.40;;;3.20;;
7887;SDS011;3989;48.810;9.208;2023-05-07T08:25:33;3.30;;;3.10;;
7887;SDS011;3989;48.810;9.208;2023-05-07T08:27:59;3.50;;;3.20;;
7887;SDS011;3989;48.810;9.208;2023-05-07T08:30:26;2.90;;;2.70;;
7887;SDS011;3989;48.810;9.208;2023-05-07T08:32:54;2.95;;;2.75;;
7887;SDS011;3989;48.810;9.208;2023-05-07T08:35:20;2.97;;;2.65;;
7887;SDS011;3989;48.810;9.208;2023-05-07T08:37:47;3.42;;;3.17;;
7887;SDS011;3989;48.810;9.208;2023-05-07T08:40:13;3.13;;;2.70;;
7887;SDS011;3989;48.810;9.208;2023-05-07T08:42:40;2.92;;;2.83;;
7887;SDS011;3989;48.810;9.208;2023-05-07T08:45:08;2.78;;;2.63;;
7887;SDS011;3989;48.810;9.208;2023-05-07T08:47:39;3.13;;;2.60;;
7887;SDS011;3989;48.810;9.208;2023-05-07T08:50:09;2.67;;;2.47;;
7887;SDS011;3989;48.810;9.208;2023-05-07T08:52:36;3.53;;;2.83;;
7887;SDS011;3989;48.810;9.208;2023-05-07T08:55:03;2.60;;;2.50;;
7887;SDS011;3989;48.810;9.208;2023-05-07T08:57:30;2.28;;;2.17;;
7887;SDS011;3989;48.810;9.208;2023-05-07T08:59:57;2.60;;;2.50;;
7887;SDS011;3989;48.810;9.208;2023-05-07T09:02:23;4.90;;;2.38;;
7887;SDS011;3989;48.810;9.208;2023-05-07T09:04:50;2.65;;;2.28;;
7887;SDS011;3989;48.810;9.208;2023-05-07T09:07:18;3.08;;;2.88;;
7887;SDS011;3989;48.810;9.208;2023-05-07T09:09:45;3.92;;;2.83;;
7887;SDS011;3989;48.810;9.208;2023-05-07T09:12:12;2.50;;;2.30;;
7887;SDS011;3989;48.810;9.208;2023-05-07T09:14:39;2.22;;;2.10;;
7887;SDS011;3989;48.810;9.208;2023-05-07T09:17:06;2.30;;;2.20;;
7887;SDS011;3989;48.810;9.208;2023-05-07T09:19:33;2.08;;;1.98;;
7887;SDS011;3989;48.810;9.208;2023-05-07T09:21:59;2.38;;;2.15;;
7887;SDS011;3989;48.810;9.208;2023-05-07T09:24:28;2.50;;;2.30;;
7887;SDS011;3989;48.810;9.208;2023-05-07T09:26:59;2.83;;;1.75;;
7887;SDS011;3989;48.810;9.208;2023-05-07T09:29:27;2.28;;;2.05;;
7887;SDS011;3989;48.810;9.208;2023-05-07T09:31:55;2.08;;;1.98;;
7887;SDS011;3989;48.810;9.208;2023-05-07T09:34:21;1.95;;;1.85;;
7887;SDS011;3989;48.810;9.208;2023-05-07T09:36:48;2.58;;;2.03;;
7887;SDS011;3989;48.810;9.208;2023-05-07T09:39:15;2.10;;;2.00;;
7887;SDS011;3989;48.810;9.208;2023-05-07T09:41:46;1.95;;;1.73;;
7887;SDS011;3989;48.810;9.208;2023-05-07T09:44:14;1.92;;;1.83;;
7887;SDS011;3989;48.810;9.208;2023-05-07T09:46:41;2.28;;;2.10;;
7887;SDS011;3989;48.810;9.208;2023-05-07T09:49:10;1.77;;;1.73;;
7887;SDS011;3989;48.810;9.208;2023-05-07T09:51:40;2.10;;;1.83;;
7887;SDS011;3989;48.810;9.208;2023-05-07T09:54:11;2.15;;;2.00;;
7887;SDS011;3989;48.810;9.208;2023-05-07T09:56:38;1.98;;;1.88;;
7887;SDS011;3989;48.810;9.208;2023-05-07T09:59:08;1.88;;;1.77;;
7887;SDS011;3989;48.810;9.208;2023-05-07T10:01:36;3.47;;;2.10;;
7887;SDS011;3989;48.810;9.208;2023-05-07T10:04:03;1.77;;;1.67;;
7887;SDS011;3989;48.810;9.208;2023-05-07T10:06:33;2.25;;;2.15;;
7887;SDS011;3989;48.810;9.208;2023-05-07T10:09:00;5.15;;;1.92;;
7887;SDS011;3989;48.810;9.208;2023-05-07T10:11:27;2.10;;;2.00;;
7887;SDS011;3989;48.810;9.208;2023-05-07T10:13:54;2.25;;;1.88;;
7887;SDS011;3989;48.810;9.208;2023-05-07T10:16:23;2.75;;;1.90;;
7887;SDS011;3989;48.810;9.208;2023-05-07T10:18:52;2.38;;;2.17;;
7887;SDS011;3989;48.810;9.208;2023-05-07T10:21:20;2.13;;;1.73;;
7887;SDS011;3989;48.810;9.208;2023-05-07T10:23:49;2.08;;;1.98;;
7887;SDS011;3989;48.810;9.208;2023-05-07T10:26:20;2.15;;;1.80;;
7887;SDS011;3989;48.810;9.208;2023-05-07T10:28:49;2.00;;;1.90;;
7887;SDS011;3989;48.810;9.208;2023-05-07T10:31:26;2.55;;;1.90;;
7887;SDS011;3989;48.810;9.208;2023-05-07T10:34:09;1.88;;;1.77;;
7887;SDS011;3989;48.810;9.208;2023-05-07T10:36:39;1.70;;;1.67;;
7887;SDS011;3989;48.810;9.208;2023-05-07T10:39:07;1.90;;;1.80;;
7887;SDS011;3989;48.810;9.208;2023-05-07T10:41:34;4.55;;;1.85;;
7887;SDS011;3989;48.810;9.208;2023-05-07T10:44:01;2.00;;;1.90;;
7887;SDS011;3989;48.810;9.208;2023-05-07T10:46:30;2.08;;;1.95;;
7887;SDS011;3989;48.810;9.208;2023-05-07T10:49:06;2.25;;;1.80;;
7887;SDS011;3989;48.810;9.208;2023-05-07T10:51:33;2.08;;;1.98;;
7887;SDS011;3989;48.810;9.208;2023-05-07T10:54:20;2.22;;;1.75;;
7887;SDS011;3989;48.810;9.208;2023-05-07T10:56:47;2.42;;;1.60;;
7887;SDS011;3989;48.810;9.208;2023-05-07T10:59:31;2.08;;;1.48;;
7887;SDS011;3989;48.810;9.208;2023-05-07T11:02:07;1.50;;;1.50;;
7887;SDS011;3989;48.810;9.208;2023-05-07T11:04:34;1.83;;;1.73;;
7887;SDS011;3989;48.810;9.208;2023-05-07T11:07:21;2.15;;;1.70;;
7887;SDS011;3989;48.810;9.208;2023-05-07T11:10:01;1.50;;;1.40;;
7887;SDS011;3989;48.810;9.208;2023-05-07T11:12:49;2.65;;;1.65;;
7887;SDS011;3989;48.810;9.208;2023-05-07T11:18:16;2.35;;;1.88;;
7887;SDS011;3989;48.810;9.208;2023-05-07T11:20:47;1.80;;;1.70;;
7887;SDS011;3989;48.810;9.208;2023-05-07T11:26:25;1.90;;;1.83;;
7887;SDS011;3989;48.810;9.208;2023-05-07T11:28:52;1.73;;;1.65;;
7887;SDS011;3989;48.810;9.208;2023-05-07T11:31:20;1.80;;;1.70;;
7887;SDS011;3989;48.810;9.208;2023-05-07T11:33:50;2.78;;;1.83;;
7887;SDS011;3989;48.810;9.208;2023-05-07T11:36:17;2.28;;;2.08;;
7887;SDS011;3989;48.810;9.208;2023-05-07T11:38:44;2.10;;;2.00;;
7887;SDS011;3989;48.810;9.208;2023-05-07T11:41:11;2.13;;;1.90;;
7887;SDS011;3989;48.810;9.208;2023-05-07T11:43:38;3.03;;;2.00;;
7887;SDS011;3989;48.810;9.208;2023-05-07T11:46:05;2.47;;;2.35;;
7887;SDS011;3989;48.810;9.208;2023-05-07T11:48:33;2.15;;;2.05;;
7887;SDS011;3989;48.810;9.208;2023-05-07T11:51:02;2.35;;;1.70;;
7887;SDS011;3989;48.810;9.208;2023-05-07T11:53:35;2.42;;;2.08;;
7887;SDS011;3989;48.810;9.208;2023-05-07T11:56:05;2.13;;;1.92;;
7887;SDS011;3989;48.810;9.208;2023-05-07T11:58:32;1.83;;;1.73;;
7887;SDS011;3989;48.810;9.208;2023-05-07T12:00:59;1.42;;;1.40;;
7887;SDS011;3989;48.810;9.208;2023-05-07T12:03:26;2.08;;;1.98;;
7887;SDS011;3989;48.810;9.208;2023-05-07T12:05:52;1.70;;;1.55;;
7887;SDS011;3989;48.810;9.208;2023-05-07T12:08:21;2.65;;;1.98;;
7887;SDS011;3989;48.810;9.208;2023-05-07T12:10:48;2.22;;;2.13;;
7887;SDS011;3989;48.810;9.208;2023-05-07T12:13:16;2.38;;;2.28;;
7887;SDS011;3989;48.810;9.208;2023-05-07T12:15:42;2.60;;;2.40;;
7887;SDS011;3989;48.810;9.208;2023-05-07T12:18:09;2.08;;;1.98;;
7887;SDS011;3989;48.810;9.208;2023-05-07T12:20:37;4.13;;;2.25;;
7887;SDS011;3989;48.810;9.208;2023-05-07T12:23:03;2.67;;;2.58;;
7887;SDS011;3989;48.810;9.208;2023-05-07T12:25:32;2.00;;;1.90;;
7887;SDS011;3989;48.810;9.208;2023-05-07T12:28:00;3.13;;;1.92;;
7887;SDS011;3989;48.810;9.208;2023-05-07T12:30:27;2.70;;;2.50;;
7887;SDS011;3989;48.810;9.208;2023-05-07T12:32:54;3.28;;;2.08;;
7887;SDS011;3989;48.810;9.208;2023-05-07T12:35:26;2.05;;;1.95;;
7887;SDS011;3989;48.810;9.208;2023-05-07T12:37:56;1.98;;;1.92;;
7887;SDS011;3989;48.810;9.208;2023-05-07T12:40:24;2.05;;;1.95;;
7887;SDS011;3989;48.810;9.208;2023-05-07T12:43:02;2.58;;;2.38;;
7887;SDS011;3989;48.810;9.208;2023-05-07T12:45:29;3.47;;;2.80;;
7887;SDS011;3989;48.810;9.208;2023-05-07T12:47:55;3.25;;;3.05;;
7887;SDS011;3989;48.810;9.208;2023-05-07T12:50:22;2.70;;;2.50;;
7887;SDS011;3989;48.810;9.208;2023-05-07T12:52:49;3.47;;;2.80;;
7887;SDS011;3989;48.810;9.208;2023-05-07T12:55:16;3.20;;;3.00;;
7887;SDS011;3989;48.810;9.208;2023-05-07T12:57:45;3.08;;;2.78;;
7887;SDS011;3989;48.810;9.208;2023-05-07T13:00:15;4.70;;;3.13;;
7887;SDS011;3989;48.810;9.208;2023-05-07T13:02:43;3.03;;;2.80;;
7887;SDS011;3989;48.810;9.208;2023-05-07T13:05:11;2.95;;;2.28;;
7887;SDS011;3989;48.810;9.208;2023-05-07T13:07:37;3.60;;;2.22;;
7887;SDS011;3989;48.810;9.208;2023-05-07T13:10:06;4.13;;;2.17;;
7887;SDS011;3989;48.810;9.208;2023-05-07T13:12:33;2.75;;;1.90;;
7887;SDS011;3989;48.810;9.208;2023-05-07T13:15:00;4.10;;;2.15;;
7887;SDS011;3989;48.810;9.208;2023-05-07T13:17:27;2.22;;;1.88;;
7887;SDS011;3989;48.810;9.208;2023-05-07T13:19:56;1.70;;;1.60;;
7887;SDS011;3989;48.810;9.208;2023-05-07T13:22:22;3.80;;;2.03;;
7887;SDS011;3989;48.810;9.208;2023-05-07T13:24:49;4.93;;;2.10;;
7887;SDS011;3989;48.810;9.208;2023-05-07T13:27:15;2.03;;;1.90;;
7887;SDS011;3989;48.810;9.208;2023-05-07T13:29:42;2.77;;;1.70;;
7887;SDS011;3989;48.810;9.208;2023-05-07T13:32:08;2.60;;;2.30;;
7887;SDS011;3989;48.810;9.208;2023-05-07T13:34:36;3.30;;;2.30;;
7887;SDS011;3989;48.810;9.208;2023-05-07T13:37:03;9.33;;;3.60;;
7887;SDS011;3989;48.810;9.208;2023-05-07T13:39:29;8.63;;;3.90;;
7887;SDS011;3989;48.810;9.208;2023-05-07T13:41:56;5.80;;;3.63;;
7887;SDS011;3989;48.810;9.208;2023-05-07T13:44:23;5.40;;;2.73;;
7887;SDS011;3989;48.810;9.208;2023-05-07T13:46:49;2.47;;;2.30;;
7887;SDS011;3989;48.810;9.208;2023-05-07T13:49:16;2.00;;;1.73;;
7887;SDS011;3989;48.810;9.208;2023-05-07T13:51:44;2.30;;;1.17;;
7887;SDS011;3989;48.810;9.208;2023-05-07T13:54:10;1.23;;;1.13;;
7887;SDS011;3989;48.810;9.208;2023-05-07T13:56:37;0.90;;;0.80;;
7887;SDS011;3989;48.810;9.208;2023-05-07T13:59:03;1.07;;;0.97;;
7887;SDS011;3989;48.810;9.208;2023-05-07T14:01:30;1.73;;;1.13;;
7887;SDS011;3989;48.810;9.208;2023-05-07T14:03:57;1.23;;;1.20;;
7887;SDS011;3989;48.810;9.208;2023-05-07T14:06:24;2.43;;;1.33;;
7887;SDS011;3989;48.810;9.208;2023-05-07T14:08:52;2.30;;;1.23;;
7887;SDS011;3989;48.810;9.208;2023-05-07T14:11:18;5.17;;;2.27;;
7887;SDS011;3989;48.810;9.208;2023-05-07T14:13:45;4.00;;;1.80;;
7887;SDS011;3989;48.810;9.208;2023-05-07T14:16:12;1.60;;;1.50;;
7887;SDS011;3989;48.810;9.208;2023-05-07T14:18:38;2.30;;;1.73;;
7887;SDS011;3989;48.810;9.208;2023-05-07T14:21:05;1.87;;;1.70;;
7887;SDS011;3989;48.810;9.208;2023-05-07T14:23:32;2.70;;;1.73;;
7887;SDS011;3989;48.810;9.208;2023-05-07T14:26:00;2.00;;;1.70;;
7887;SDS011;3989;48.810;9.208;2023-05-07T14:28:27;2.20;;;2.10;;
7887;SDS011;3989;48.810;9.208;2023-05-07T14:30:53;2.00;;;1.90;;
7887;SDS011;3989;48.810;9.208;2023-05-07T14:33:20;2.90;;;2.30;;
7887;SDS011;3989;48.810;9.208;2023-05-07T14:35:46;3.17;;;2.37;;
7887;SDS011;3989;48.810;9.208;2023-05-07T14:38:15;2.43;;;2.33;;
7887;SDS011;3989;48.810;9.208;2023-05-07T14:40:41;2.70;;;2.50;;
7887;SDS011;3989;48.810;9.208;2023-05-07T14:43:09;2.40;;;2.23;;
7887;SDS011;3989;48.810;9.208;2023-05-07T14:45:35;2.30;;;1.70;;
7887;SDS011;3989;48.810;9.208;2023-05-07T14:48:02;2.17;;;2.07;;
7887;SDS011;3989;48.810;9.208;2023-05-07T14:50:29;3.23;;;2.03;;
7887;SDS011;3989;48.810;9.208;2023-05-07T14:52:56;2.30;;;2.10;;
7887;SDS011;3989;48.810;9.208;2023-05-07T14:55:22;2.10;;;2.00;;
7887;SDS011;3989;48.810;9.208;2023-05-07T14:57:49;3.83;;;3.07;;
7887;SDS011;3989;48.810;9.208;2023-05-07T15:00:17;2.63;;;2.40;;
7887;SDS011;3989;48.810;9.208;2023-05-07T15:02:44;2.60;;;2.40;;
7887;SDS011;3989;48.810;9.208;2023-05-07T15:05:11;3.23;;;2.93;;
7887;SDS011;3989;48.810;9.208;2023-05-07T15:07:39;2.33;;;2.13;;
7887;SDS011;3989;48.810;9.208;2023-05-07T15:10:06;3.67;;;2.63;;
7887;SDS011;3989;48.810;9.208;2023-05-07T15:12:33;2.50;;;2.30;;
7887;SDS011;3989;48.810;9.208;2023-05-07T15:15:00;3.23;;;2.57;;
7887;SDS011;3989;48.810;9.208;2023-05-07T15:17:28;2.70;;;2.50;;
7887;SDS011;3989;48.810;9.208;2023-05-07T15:19:55;2.77;;;2.37;;
7887;SDS011;3989;48.810;9.208;2023-05-07T15:22:21;2.40;;;2.30;;